sensor_id;sensor_type;location;lat;lon;timestamp;P1;durP1;ratioP1;P2;durP2;ratioP2
15126;SDS011;7664;52.008;4.748;2023-04-01T00:01:01;14.48;;;7.00;;
15126;SDS011;7664;52.008;4.748;2023-04-01T00:03:30;14.02;;;7.10;;
15126;SDS011;7664;52.008;4.748;2023-04-01T00:06:04;14.88;;;7.20;;
15126;SDS011;7664;52.008;4.748;2023-04-01T00:08:34;12.63;;;7.20;;
15126;SDS011;7664;52.008;4.748;2023-04-01T00:11:03;18.98;;;8.13;;
15126;SDS011;7664;52.008;4.748;2023-04-01T00:13:32;15.95;;;7.18;;
15126;SDS011;7664;52.008;4.748;2023-04-01T00:16:00;15.60;;;8.40;;
15126;SDS011;7664;52.008;4.748;2023-04-01T00:18:45;19.95;;;8.38;;
15126;SDS011;7664;52.008;4.748;2023-04-01T00:21:14;18.85;;;8.35;;
15126;SDS011;7664;52.008;4.748;2023-04-01T00:23:44;19.10;;;7.20;;
15126;SDS011;7664;52.008;4.748;2023-04-01T00:26:15;14.70;;;7.10;;
15126;SDS011;7664;52.008;4.748;2023-04-01T00:28:47;21.33;;;7.30;;
15126;SDS011;7664;52.008;4.748;2023-04-01T00:31:15;17.17;;;7.40;;
15126;SDS011;7664;52.008;4.748;2023-04-01T00:33:44;19.40;;;6.28;;
15126;SDS011;7664;52.008;4.748;2023-04-01T00:36:13;14.65;;;7.03;;
15126;SDS011;7664;52.008;4.748;2023-04-01T00:38:44;17.70;;;7.05;;
15126;SDS011;7664;52.008;4.748;2023-04-01T00:41:16;19.75;;;6.45;;
15126;SDS011;7664;52.008;4.748;2023-04-01T00:43:46;17.25;;;6.93;;
15126;SDS011;7664;52.008;4.748;2023-04-01T00:46:14;14.07;;;5.53;;
15126;SDS011;7664;52.008;4.748;2023-04-01T00:48:48;15.55;;;5.72;;
15126;SDS011;7664;52.008;4.748;2023-04-01T00:51:20;13.02;;;4.90;;
15126;SDS011;7664;52.008;4.748;2023-04-01T00:53:52;8.65;;;4.90;;
15126;SDS011;7664;52.008;4.748;2023-04-01T00:56:24;10.25;;;5.15;;
15126;SDS011;7664;52.008;4.748;2023-04-01T00:58:57;17.38;;;6.60;;
15126;SDS011;7664;52.008;4.748;2023-04-01T01:01:27;11.00;;;4.78;;
15126;SDS011;7664;52.008;4.748;2023-04-01T01:03:57;12.65;;;5.82;;
15126;SDS011;7664;52.008;4.748;2023-04-01T01:06:32;13.52;;;5.57;;
15126;SDS011;7664;52.008;4.748;2023-04-01T01:09:20;20.38;;;6.50;;
15126;SDS011;7664;52.008;4.748;2023-04-01T01:11:54;19.65;;;5.97;;
15126;SDS011;7664;52.008;4.748;2023-04-01T01:14:29;20.13;;;6.78;;
15126;SDS011;7664;52.008;4.748;2023-04-01T01:17:02;9.45;;;5.57;;
15126;SDS011;7664;52.008;4.748;2023-04-01T01:22:35;18.88;;;6.93;;
15126;SDS011;7664;52.008;4.748;2023-04-01T01:25:13;11.93;;;5.82;;
15126;SDS011;7664;52.008;4.748;2023-04-01T01:27:46;14.45;;;5.65;;
15126;SDS011;7664;52.008;4.748;2023-04-01T01:30:33;12.77;;;6.28;;
15126;SDS011;7664;52.008;4.748;2023-04-01T01:33:13;13.30;;;6.07;;
15126;SDS011;7664;52.008;4.748;2023-04-01T01:35:49;8.05;;;3.95;;
15126;SDS011;7664;52.008;4.748;2023-04-01T01:38:21;8.10;;;4.22;;
15126;SDS011;7664;52.008;4.748;2023-04-01T01:40:57;13.07;;;5.05;;
15126;SDS011;7664;52.008;4.748;2023-04-01T01:43:29;11.07;;;5.40;;
15126;SDS011;7664;52.008;4.748;2023-04-01T01:45:59;12.40;;;5.15;;
15126;SDS011;7664;52.008;4.748;2023-04-01T01:48:29;9.02;;;3.95;;
15126;SDS011;7664;52.008;4.748;2023-04-01T01:51:00;10.40;;;3.28;;
15126;SDS011;7664;52.008;4.748;2023-04-01T01:53:29;11.30;;;3.72;;
15126;SDS011;7664;52.008;4.748;2023-04-01T01:55:58;11.15;;;4.18;;
15126;SDS011;7664;52.008;4.748;2023-04-01T01:58:30;8.68;;;3.30;;
15126;SDS011;7664;52.008;4.748;2023-04-01T02:01:09;6.82;;;3.05;;
15126;SDS011;7664;52.008;4.748;2023-04-01T02:03:40;8.43;;;2.42;;
15126;SDS011;7664;52.008;4.748;2023-04-01T02:06:13;6.25;;;2.65;;
15126;SDS011;7664;52.008;4.748;2023-04-01T02:08:43;6.88;;;2.63;;
15126;SDS011;7664;52.008;4.748;2023-04-01T02:11:15;5.60;;;2.58;;
15126;SDS011;7664;52.008;4.748;2023-04-01T02:13:49;7.78;;;2.95;;
15126;SDS011;7664;52.008;4.748;2023-04-01T02:16:24;6.80;;;2.80;;
15126;SDS011;7664;52.008;4.748;2023-04-01T02:18:58;9.88;;;3.75;;
15126;SDS011;7664;52.008;4.748;2023-04-01T02:21:29;9.77;;;3.28;;
15126;SDS011;7664;52.008;4.748;2023-04-01T02:24:02;10.90;;;4.53;;
15126;SDS011;7664;52.008;4.748;2023-04-01T02:26:35;8.10;;;3.55;;
15126;SDS011;7664;52.008;4.748;2023-04-01T02:29:04;6.50;;;3.75;;
15126;SDS011;7664;52.008;4.748;2023-04-01T02:31:34;11.27;;;3.95;;
15126;SDS011;7664;52.008;4.748;2023-04-01T02:34:03;8.27;;;4.22;;
15126;SDS011;7664;52.008;4.748;2023-04-01T02:36:34;7.82;;;3.60;;
15126;SDS011;7664;52.008;4.748;2023-04-01T02:39:06;6.40;;;3.38;;
15126;SDS011;7664;52.008;4.748;2023-04-01T02:41:38;6.22;;;3.08;;
15126;SDS011;7664;52.008;4.748;2023-04-01T02:44:08;9.35;;;3.47;;
15126;SDS011;7664;52.008;4.748;2023-04-01T02:46:39;9.35;;;3.40;;
15126;SDS011;7664;52.008;4.748;2023-04-01T02:49:08;6.93;;;3.10;;
15126;SDS011;7664;52.008;4.748;2023-04-01T02:51:42;9.38;;;4.32;;
15126;SDS011;7664;52.008;4.748;2023-04-01T02:54:13;5.47;;;3.20;;
15126;SDS011;7664;52.008;4.748;2023-04-01T02:56:49;8.25;;;3.85;;
15126;SDS011;7664;52.008;4.748;2023-04-01T02:59:20;10.68;;;4.20;;
15126;SDS011;7664;52.008;4.748;2023-04-01T03:01:48;8.52;;;5.05;;
15126;SDS011;7664;52.008;4.748;2023-04-01T03:04:19;9.90;;;4.82;;
15126;SDS011;7664;52.008;4.748;2023-04-01T03:06:49;9.13;;;4.95;;
15126;SDS011;7664;52.008;4.748;2023-04-01T03:09:18;14.02;;;5.57;;
15126;SDS011;7664;52.008;4.748;2023-04-01T03:11:47;11.10;;;5.28;;
15126;SDS011;7664;52.008;4.748;2023-04-01T03:14:15;11.13;;;5.88;;
15126;SDS011;7664;52.008;4.748;2023-04-01T03:16:44;13.82;;;6.68;;
15126;SDS011;7664;52.008;4.748;2023-04-01T03:19:13;14.82;;;6.80;;
15126;SDS011;7664;52.008;4.748;2023-04-01T03:21:42;15.43;;;6.68;;
15126;SDS011;7664;52.008;4.748;2023-04-01T03:24:12;10.88;;;6.55;;
15126;SDS011;7664;52.008;4.748;2023-04-01T03:26:41;12.98;;;7.68;;
15126;SDS011;7664;52.008;4.748;2023-04-01T03:29:11;14.70;;;7.20;;
15126;SDS011;7664;52.008;4.748;2023-04-01T03:31:43;14.82;;;7.78;;
15126;SDS011;7664;52.008;4.748;2023-04-01T03:34:11;12.57;;;6.93;;
15126;SDS011;7664;52.008;4.748;2023-04-01T03:36:42;11.60;;;6.38;;
15126;SDS011;7664;52.008;4.748;2023-04-01T03:39:15;11.20;;;6.32;;
15126;SDS011;7664;52.008;4.748;2023-04-01T03:41:45;10.65;;;5.85;;
15126;SDS011;7664;52.008;4.748;2023-04-01T03:44:13;11.88;;;5.85;;
15126;SDS011;7664;52.008;4.748;2023-04-01T03:46:48;13.00;;;5.70;;
15126;SDS011;7664;52.008;4.748;2023-04-01T03:49:16;13.95;;;6.82;;
15126;SDS011;7664;52.008;4.748;2023-04-01T03:51:45;7.78;;;4.63;;
15126;SDS011;7664;52.008;4.748;2023-04-01T03:54:15;11.82;;;5.55;;
15126;SDS011;7664;52.008;4.748;2023-04-01T03:56:44;9.20;;;5.05;;
15126;SDS011;7664;52.008;4.748;2023-04-01T03:59:13;13.05;;;6.28;;
15126;SDS011;7664;52.008;4.748;2023-04-01T04:01:42;13.75;;;5.60;;
15126;SDS011;7664;52.008;4.748;2023-04-01T04:04:11;12.93;;;7.03;;
15126;SDS011;7664;52.008;4.748;2023-04-01T04:06:41;8.73;;;5.80;;
15126;SDS011;7664;52.008;4.748;2023-04-01T04:09:09;11.73;;;6.38;;
15126;SDS011;7664;52.008;4.748;2023-04-01T04:11:42;11.32;;;6.60;;
15126;SDS011;7664;52.008;4.748;2023-04-01T04:14:11;9.73;;;6.03;;
15126;SDS011;7664;52.008;4.748;2023-04-01T04:16:43;9.48;;;5.95;;
15126;SDS011;7664;52.008;4.748;2023-04-01T04:19:12;11.90;;;6.45;;
15126;SDS011;7664;52.008;4.748;2023-04-01T04:21:44;12.52;;;7.13;;
15126;SDS011;7664;52.008;4.748;2023-04-01T04:24:16;12.32;;;6.93;;
15126;SDS011;7664;52.008;4.748;2023-04-01T04:27:06;12.35;;;6.32;;
15126;SDS011;7664;52.008;4.748;2023-04-01T04:29:42;11.90;;;6.47;;
15126;SDS011;7664;52.008;4.748;2023-04-01T04:32:10;11.90;;;7.25;;
15126;SDS011;7664;52.008;4.748;2023-04-01T04:34:39;10.75;;;7.38;;
15126;SDS011;7664;52.008;4.748;2023-04-01T04:37:08;13.18;;;7.13;;
15126;SDS011;7664;52.008;4.748;2023-04-01T04:39:36;10.60;;;6.22;;
15126;SDS011;7664;52.008;4.748;2023-04-01T04:42:07;12.68;;;7.18;;
15126;SDS011;7664;52.008;4.748;2023-04-01T04:44:36;14.05;;;7.78;;
15126;SDS011;7664;52.008;4.748;2023-04-01T04:47:05;13.02;;;6.35;;
15126;SDS011;7664;52.008;4.748;2023-04-01T04:49:35;13.98;;;6.80;;
15126;SDS011;7664;52.008;4.748;2023-04-01T04:52:08;13.95;;;6.63;;
15126;SDS011;7664;52.008;4.748;2023-04-01T04:54:37;13.77;;;7.05;;
15126;SDS011;7664;52.008;4.748;2023-04-01T04:57:10;10.07;;;5.95;;
15126;SDS011;7664;52.008;4.748;2023-04-01T04:59:51;15.68;;;6.55;;
15126;SDS011;7664;52.008;4.748;2023-04-01T05:02:35;16.02;;;8.50;;
15126;SDS011;7664;52.008;4.748;2023-04-01T05:05:05;13.52;;;7.75;;
15126;SDS011;7664;52.008;4.748;2023-04-01T05:07:34;15.80;;;7.28;;
15126;SDS011;7664;52.008;4.748;2023-04-01T05:10:06;18.85;;;8.60;;
15126;SDS011;7664;52.008;4.748;2023-04-01T05:12:36;15.25;;;8.90;;
15126;SDS011;7664;52.008;4.748;2023-04-01T05:15:08;17.30;;;9.32;;
15126;SDS011;7664;52.008;4.748;2023-04-01T05:17:37;15.27;;;8.85;;
15126;SDS011;7664;52.008;4.748;2023-04-01T05:20:08;20.33;;;9.73;;
15126;SDS011;7664;52.008;4.748;2023-04-01T05:22:37;16.60;;;9.18;;
15126;SDS011;7664;52.008;4.748;2023-04-01T05:25:07;16.75;;;8.07;;
15126;SDS011;7664;52.008;4.748;2023-04-01T05:27:40;16.48;;;8.23;;
15126;SDS011;7664;52.008;4.748;2023-04-01T05:30:13;16.40;;;8.38;;
15126;SDS011;7664;52.008;4.748;2023-04-01T05:32:57;12.68;;;7.38;;
15126;SDS011;7664;52.008;4.748;2023-04-01T05:35:28;12.25;;;7.60;;
15126;SDS011;7664;52.008;4.748;2023-04-01T05:37:57;14.60;;;7.28;;
15126;SDS011;7664;52.008;4.748;2023-04-01T05:40:28;14.38;;;7.25;;
15126;SDS011;7664;52.008;4.748;2023-04-01T05:42:59;11.05;;;6.22;;
15126;SDS011;7664;52.008;4.748;2023-04-01T05:45:29;16.13;;;7.63;;
15126;SDS011;7664;52.008;4.748;2023-04-01T05:48:10;12.15;;;6.78;;
15126;SDS011;7664;52.008;4.748;2023-04-01T05:50:41;12.98;;;6.28;;
15126;SDS011;7664;52.008;4.748;2023-04-01T05:53:10;13.98;;;7.32;;
15126;SDS011;7664;52.008;4.748;2023-04-01T05:55:44;16.95;;;7.90;;
15126;SDS011;7664;52.008;4.748;2023-04-01T05:58:16;14.70;;;7.28;;
15126;SDS011;7664;52.008;4.748;2023-04-01T06:00:49;15.57;;;7.75;;
15126;SDS011;7664;52.008;4.748;2023-04-01T06:03:33;14.80;;;7.40;;
15126;SDS011;7664;52.008;4.748;2023-04-01T06:06:09;15.70;;;8.82;;
15126;SDS011;7664;52.008;4.748;2023-04-01T06:08:41;16.35;;;8.48;;
15126;SDS011;7664;52.008;4.748;2023-04-01T06:11:18;16.67;;;7.95;;
15126;SDS011;7664;52.008;4.748;2023-04-01T06:13:55;12.63;;;7.82;;
15126;SDS011;7664;52.008;4.748;2023-04-01T06:16:36;14.50;;;6.65;;
15126;SDS011;7664;52.008;4.748;2023-04-01T06:19:11;12.63;;;7.07;;
15126;SDS011;7664;52.008;4.748;2023-04-01T06:21:59;11.98;;;6.75;;
15126;SDS011;7664;52.008;4.748;2023-04-01T06:24:42;15.02;;;7.03;;
15126;SDS011;7664;52.008;4.748;2023-04-01T06:27:16;13.98;;;6.28;;
15126;SDS011;7664;52.008;4.748;2023-04-01T06:29:52;18.77;;;7.97;;
15126;SDS011;7664;52.008;4.748;2023-04-01T06:35:20;13.50;;;8.15;;
15126;SDS011;7664;52.008;4.748;2023-04-01T06:38:00;11.98;;;6.50;;
15126;SDS011;7664;52.008;4.748;2023-04-01T06:43:28;15.98;;;8.48;;
15126;SDS011;7664;52.008;4.748;2023-04-01T06:46:39;20.40;;;9.82;;
15126;SDS011;7664;52.008;4.748;2023-04-01T06:49:35;13.68;;;9.15;;
15126;SDS011;7664;52.008;4.748;2023-04-01T06:52:31;16.83;;;9.07;;
15126;SDS011;7664;52.008;4.748;2023-04-01T06:55:27;16.83;;;9.75;;
15126;SDS011;7664;52.008;4.748;2023-04-01T06:58:39;16.95;;;10.38;;
15126;SDS011;7664;52.008;4.748;2023-04-01T07:01:10;22.05;;;11.25;;
15126;SDS011;7664;52.008;4.748;2023-04-01T07:03:43;18.80;;;10.90;;
15126;SDS011;7664;52.008;4.748;2023-04-01T07:06:14;23.20;;;11.25;;
15126;SDS011;7664;52.008;4.748;2023-04-01T07:08:52;20.42;;;9.95;;
15126;SDS011;7664;52.008;4.748;2023-04-01T07:11:24;19.65;;;9.93;;
15126;SDS011;7664;52.008;4.748;2023-04-01T07:14:15;20.88;;;11.05;;
15126;SDS011;7664;52.008;4.748;2023-04-01T07:16:46;21.23;;;11.20;;
15126;SDS011;7664;52.008;4.748;2023-04-01T07:19:18;19.20;;;9.57;;
15126;SDS011;7664;52.008;4.748;2023-04-01T07:22:04;17.83;;;9.98;;
15126;SDS011;7664;52.008;4.748;2023-04-01T07:25:02;18.50;;;8.43;;
15126;SDS011;7664;52.008;4.748;2023-04-01T07:27:33;18.40;;;8.75;;
15126;SDS011;7664;52.008;4.748;2023-04-01T07:30:06;16.35;;;9.05;;
15126;SDS011;7664;52.008;4.748;2023-04-01T07:32:42;15.50;;;8.65;;
15126;SDS011;7664;52.008;4.748;2023-04-01T07:35:22;19.83;;;9.85;;
15126;SDS011;7664;52.008;4.748;2023-04-01T07:38:02;17.13;;;9.50;;
15126;SDS011;7664;52.008;4.748;2023-04-01T07:40:37;16.80;;;8.82;;
15126;SDS011;7664;52.008;4.748;2023-04-01T07:46:08;13.90;;;8.50;;
15126;SDS011;7664;52.008;4.748;2023-04-01T07:48:42;15.90;;;8.40;;
15126;SDS011;7664;52.008;4.748;2023-04-01T07:51:15;14.55;;;9.00;;
15126;SDS011;7664;52.008;4.748;2023-04-01T07:53:46;13.65;;;7.03;;
15126;SDS011;7664;52.008;4.748;2023-04-01T07:56:18;16.58;;;7.60;;
15126;SDS011;7664;52.008;4.748;2023-04-01T07:58:55;17.08;;;8.18;;
15126;SDS011;7664;52.008;4.748;2023-04-01T08:01:55;15.93;;;7.47;;
15126;SDS011;7664;52.008;4.748;2023-04-01T08:04:34;14.73;;;6.28;;
15126;SDS011;7664;52.008;4.748;2023-04-01T08:07:11;16.23;;;7.40;;
15126;SDS011;7664;52.008;4.748;2023-04-01T08:09:59;10.70;;;6.78;;
15126;SDS011;7664;52.008;4.748;2023-04-01T08:12:52;15.40;;;6.55;;
15126;SDS011;7664;52.008;4.748;2023-04-01T08:15:55;15.38;;;7.75;;
15126;SDS011;7664;52.008;4.748;2023-04-01T08:18:43;12.68;;;6.82;;
15126;SDS011;7664;52.008;4.748;2023-04-01T08:21:16;13.80;;;7.07;;
15126;SDS011;7664;52.008;4.748;2023-04-01T08:23:55;16.42;;;7.93;;
15126;SDS011;7664;52.008;4.748;2023-04-01T08:26:28;14.38;;;6.90;;
15126;SDS011;7664;52.008;4.748;2023-04-01T08:28:59;16.45;;;6.85;;
15126;SDS011;7664;52.008;4.748;2023-04-01T08:31:31;14.70;;;6.78;;
15126;SDS011;7664;52.008;4.748;2023-04-01T08:34:02;15.55;;;7.18;;
15126;SDS011;7664;52.008;4.748;2023-04-01T08:36:34;9.00;;;5.03;;
15126;SDS011;7664;52.008;4.748;2023-04-01T08:39:17;12.57;;;6.78;;
15126;SDS011;7664;52.008;4.748;2023-04-01T08:47:57;17.63;;;6.07;;
15126;SDS011;7664;52.008;4.748;2023-04-01T08:50:44;10.43;;;6.32;;
15126;SDS011;7664;52.008;4.748;2023-04-01T08:53:33;9.73;;;5.43;;
15126;SDS011;7664;52.008;4.748;2023-04-01T08:56:09;12.75;;;6.63;;
15126;SDS011;7664;52.008;4.748;2023-04-01T08:58:51;12.60;;;6.38;;
15126;SDS011;7664;52.008;4.748;2023-04-01T09:01:40;12.20;;;6.47;;
15126;SDS011;7664;52.008;4.748;2023-04-01T09:04:43;12.90;;;6.68;;
15126;SDS011;7664;52.008;4.748;2023-04-01T09:07:24;13.77;;;7.32;;
15126;SDS011;7664;52.008;4.748;2023-04-01T09:10:16;11.70;;;6.10;;
15126;SDS011;7664;52.008;4.748;2023-04-01T09:12:56;12.35;;;6.10;;
15126;SDS011;7664;52.008;4.748;2023-04-01T09:15:40;13.32;;;6.22;;
15126;SDS011;7664;52.008;4.748;2023-04-01T09:21:04;10.82;;;5.22;;
15126;SDS011;7664;52.008;4.748;2023-04-01T09:23:43;10.57;;;5.72;;
15126;SDS011;7664;52.008;4.748;2023-04-01T09:29:32;11.60;;;5.28;;
15126;SDS011;7664;52.008;4.748;2023-04-01T09:32:12;8.60;;;4.50;;
15126;SDS011;7664;52.008;4.748;2023-04-01T09:34:52;10.90;;;4.95;;
15126;SDS011;7664;52.008;4.748;2023-04-01T09:37:30;8.80;;;5.50;;
15126;SDS011;7664;52.008;4.748;2023-04-01T09:40:15;9.38;;;5.00;;
15126;SDS011;7664;52.008;4.748;2023-04-01T09:42:56;15.05;;;5.85;;
15126;SDS011;7664;52.008;4.748;2023-04-01T09:45:40;15.32;;;7.20;;
15126;SDS011;7664;52.008;4.748;2023-04-01T09:48:20;13.52;;;6.78;;
15126;SDS011;7664;52.008;4.748;2023-04-01T09:50:51;15.40;;;6.20;;
15126;SDS011;7664;52.008;4.748;2023-04-01T09:53:28;11.32;;;6.45;;
15126;SDS011;7664;52.008;4.748;2023-04-01T10:02:15;12.48;;;4.32;;
15126;SDS011;7664;52.008;4.748;2023-04-01T10:10:38;6.25;;;3.20;;
15126;SDS011;7664;52.008;4.748;2023-04-01T10:13:23;6.90;;;3.83;;
15126;SDS011;7664;52.008;4.748;2023-04-01T10:18:55;4.30;;;2.42;;
15126;SDS011;7664;52.008;4.748;2023-04-01T10:21:34;4.75;;;2.78;;
15126;SDS011;7664;52.008;4.748;2023-04-01T10:24:19;4.22;;;3.03;;
15126;SDS011;7664;52.008;4.748;2023-04-01T10:27:05;5.65;;;2.95;;
15126;SDS011;7664;52.008;4.748;2023-04-01T10:30:15;6.85;;;3.25;;
15126;SDS011;7664;52.008;4.748;2023-04-01T10:36:08;9.02;;;4.60;;
15126;SDS011;7664;52.008;4.748;2023-04-01T10:41:39;10.18;;;5.38;;
15126;SDS011;7664;52.008;4.748;2023-04-01T10:44:41;11.00;;;5.72;;
15126;SDS011;7664;52.008;4.748;2023-04-01T10:50:24;9.45;;;4.72;;
15126;SDS011;7664;52.008;4.748;2023-04-01T10:53:12;9.60;;;4.43;;
15126;SDS011;7664;52.008;4.748;2023-04-01T10:56:11;11.55;;;5.95;;
15126;SDS011;7664;52.008;4.748;2023-04-01T10:59:09;10.45;;;5.53;;
15126;SDS011;7664;52.008;4.748;2023-04-01T11:02:09;11.02;;;5.85;;
15126;SDS011;7664;52.008;4.748;2023-04-01T11:16:57;10.05;;;4.60;;
15126;SDS011;7664;52.008;4.748;2023-04-01T11:22:25;8.85;;;5.75;;
15126;SDS011;7664;52.008;4.748;2023-04-01T11:28:27;8.20;;;4.82;;
15126;SDS011;7664;52.008;4.748;2023-04-01T11:31:00;7.30;;;4.30;;
15126;SDS011;7664;52.008;4.748;2023-04-01T11:33:38;6.57;;;3.33;;
15126;SDS011;7664;52.008;4.748;2023-04-01T11:36:11;6.78;;;3.25;;
15126;SDS011;7664;52.008;4.748;2023-04-01T11:38:53;7.32;;;3.00;;
15126;SDS011;7664;52.008;4.748;2023-04-01T11:41:43;7.20;;;3.75;;
15126;SDS011;7664;52.008;4.748;2023-04-01T11:44:38;7.00;;;3.53;;
15126;SDS011;7664;52.008;4.748;2023-04-01T11:50:09;12.70;;;4.95;;
15126;SDS011;7664;52.008;4.748;2023-04-01T11:52:55;7.40;;;4.95;;
15126;SDS011;7664;52.008;4.748;2023-04-01T11:55:28;8.77;;;4.57;;
15126;SDS011;7664;52.008;4.748;2023-04-01T11:58:10;9.88;;;4.50;;
15126;SDS011;7664;52.008;4.748;2023-04-01T12:00:51;10.25;;;5.13;;
15126;SDS011;7664;52.008;4.748;2023-04-01T12:03:39;11.38;;;5.22;;
15126;SDS011;7664;52.008;4.748;2023-04-01T12:06:16;8.45;;;4.43;;
15126;SDS011;7664;52.008;4.748;2023-04-01T12:08:49;9.30;;;5.22;;
15126;SDS011;7664;52.008;4.748;2023-04-01T12:11:25;7.70;;;4.65;;
15126;SDS011;7664;52.008;4.748;2023-04-01T12:13:59;10.57;;;4.97;;
15126;SDS011;7664;52.008;4.748;2023-04-01T12:16:40;7.82;;;4.85;;
15126;SDS011;7664;52.008;4.748;2023-04-01T12:19:12;7.63;;;3.95;;
15126;SDS011;7664;52.008;4.748;2023-04-01T12:21:50;9.20;;;5.22;;
15126;SDS011;7664;52.008;4.748;2023-04-01T12:24:26;10.85;;;5.05;;
15126;SDS011;7664;52.008;4.748;2023-04-01T12:27:06;9.50;;;5.63;;
15126;SDS011;7664;52.008;4.748;2023-04-01T12:29:55;10.60;;;5.43;;
15126;SDS011;7664;52.008;4.748;2023-04-01T12:32:30;7.53;;;5.05;;
15126;SDS011;7664;52.008;4.748;2023-04-01T12:35:13;9.40;;;6.15;;
15126;SDS011;7664;52.008;4.748;2023-04-01T12:37:47;10.75;;;6.43;;
15126;SDS011;7664;52.008;4.748;2023-04-01T12:40:20;11.77;;;6.75;;
15126;SDS011;7664;52.008;4.748;2023-04-01T12:42:55;9.63;;;6.03;;
15126;SDS011;7664;52.008;4.748;2023-04-01T12:45:30;11.23;;;6.43;;
15126;SDS011;7664;52.008;4.748;2023-04-01T12:50:59;10.15;;;6.03;;
15126;SDS011;7664;52.008;4.748;2023-04-01T12:53:39;9.63;;;6.30;;
15126;SDS011;7664;52.008;4.748;2023-04-01T12:56:14;9.55;;;5.47;;
15126;SDS011;7664;52.008;4.748;2023-04-01T12:58:56;10.65;;;6.18;;
15126;SDS011;7664;52.008;4.748;2023-04-01T13:01:40;10.55;;;6.80;;
15126;SDS011;7664;52.008;4.748;2023-04-01T13:09:55;11.50;;;6.40;;
15126;SDS011;7664;52.008;4.748;2023-04-01T13:12:30;10.70;;;5.78;;
15126;SDS011;7664;52.008;4.748;2023-04-01T13:15:08;10.23;;;6.20;;
15126;SDS011;7664;52.008;4.748;2023-04-01T13:17:40;12.95;;;6.18;;
15126;SDS011;7664;52.008;4.748;2023-04-01T13:20:14;9.10;;;5.53;;
15126;SDS011;7664;52.008;4.748;2023-04-01T13:22:50;12.90;;;5.93;;
15126;SDS011;7664;52.008;4.748;2023-04-01T13:25:24;10.95;;;5.38;;
15126;SDS011;7664;52.008;4.748;2023-04-01T13:27:56;12.27;;;5.20;;
15126;SDS011;7664;52.008;4.748;2023-04-01T13:30:27;12.90;;;6.22;;
15126;SDS011;7664;52.008;4.748;2023-04-01T13:33:01;12.85;;;5.68;;
15126;SDS011;7664;52.008;4.748;2023-04-01T13:35:35;9.43;;;5.32;;
15126;SDS011;7664;52.008;4.748;2023-04-01T13:38:12;11.88;;;5.53;;
15126;SDS011;7664;52.008;4.748;2023-04-01T13:40:50;10.38;;;5.70;;
15126;SDS011;7664;52.008;4.748;2023-04-01T13:43:30;11.60;;;5.40;;
15126;SDS011;7664;52.008;4.748;2023-04-01T13:46:08;9.20;;;5.97;;
15126;SDS011;7664;52.008;4.748;2023-04-01T13:51:40;10.10;;;5.30;;
15126;SDS011;7664;52.008;4.748;2023-04-01T13:54:16;12.80;;;6.30;;
15126;SDS011;7664;52.008;4.748;2023-04-01T13:56:56;14.38;;;6.10;;
15126;SDS011;7664;52.008;4.748;2023-04-01T13:59:32;8.13;;;4.72;;
15126;SDS011;7664;52.008;4.748;2023-04-01T14:02:11;5.60;;;4.05;;
15126;SDS011;7664;52.008;4.748;2023-04-01T14:04:46;7.28;;;4.00;;
15126;SDS011;7664;52.008;4.748;2023-04-01T14:07:31;10.63;;;3.30;;
15126;SDS011;7664;52.008;4.748;2023-04-01T14:10:16;10.80;;;4.28;;
15126;SDS011;7664;52.008;4.748;2023-04-01T14:12:49;8.05;;;3.05;;
15126;SDS011;7664;52.008;4.748;2023-04-01T14:15:25;7.45;;;3.88;;
15126;SDS011;7664;52.008;4.748;2023-04-01T14:18:01;10.82;;;4.28;;
15126;SDS011;7664;52.008;4.748;2023-04-01T14:20:36;9.00;;;4.72;;
15126;SDS011;7664;52.008;4.748;2023-04-01T14:23:20;6.72;;;4.20;;
15126;SDS011;7664;52.008;4.748;2023-04-01T14:25:56;4.50;;;3.00;;
15126;SDS011;7664;52.008;4.748;2023-04-01T14:28:32;6.13;;;3.30;;
15126;SDS011;7664;52.008;4.748;2023-04-01T14:31:16;12.00;;;3.42;;
15126;SDS011;7664;52.008;4.748;2023-04-01T14:33:50;6.93;;;3.08;;
15126;SDS011;7664;52.008;4.748;2023-04-01T14:39:13;8.07;;;3.60;;
15126;SDS011;7664;52.008;4.748;2023-04-01T14:41:45;5.75;;;3.40;;
15126;SDS011;7664;52.008;4.748;2023-04-01T14:44:26;8.23;;;3.80;;
15126;SDS011;7664;52.008;4.748;2023-04-01T14:50:02;6.25;;;3.42;;
15126;SDS011;7664;52.008;4.748;2023-04-01T14:52:38;6.00;;;3.90;;
15126;SDS011;7664;52.008;4.748;2023-04-01T14:55:17;7.13;;;3.38;;
15126;SDS011;7664;52.008;4.748;2023-04-01T14:58:04;5.82;;;3.08;;
15126;SDS011;7664;52.008;4.748;2023-04-01T15:00:40;7.32;;;3.22;;
15126;SDS011;7664;52.008;4.748;2023-04-01T15:03:13;4.22;;;2.65;;
15126;SDS011;7664;52.008;4.748;2023-04-01T15:05:45;3.80;;;2.45;;
15126;SDS011;7664;52.008;4.748;2023-04-01T15:08:16;4.25;;;2.97;;
15126;SDS011;7664;52.008;4.748;2023-04-01T15:13:42;4.53;;;3.08;;
15126;SDS011;7664;52.008;4.748;2023-04-01T15:16:16;5.38;;;3.72;;
15126;SDS011;7664;52.008;4.748;2023-04-01T15:18:49;4.30;;;3.28;;
15126;SDS011;7664;52.008;4.748;2023-04-01T15:21:27;5.53;;;3.88;;
15126;SDS011;7664;52.008;4.748;2023-04-01T15:24:04;4.13;;;3.53;;
15126;SDS011;7664;52.008;4.748;2023-04-01T15:26:47;5.15;;;3.75;;
15126;SDS011;7664;52.008;4.748;2023-04-01T15:29:25;7.50;;;5.07;;
15126;SDS011;7664;52.008;4.748;2023-04-01T15:31:58;6.32;;;4.63;;
15126;SDS011;7664;52.008;4.748;2023-04-01T15:34:31;6.35;;;4.40;;
15126;SDS011;7664;52.008;4.748;2023-04-01T15:37:02;6.07;;;4.55;;
15126;SDS011;7664;52.008;4.748;2023-04-01T15:39:38;5.82;;;4.20;;
15126;SDS011;7664;52.008;4.748;2023-04-01T15:42:14;6.40;;;4.53;;
15126;SDS011;7664;52.008;4.748;2023-04-01T15:44:47;8.25;;;5.15;;
15126;SDS011;7664;52.008;4.748;2023-04-01T15:47:32;8.13;;;4.85;;
15126;SDS011;7664;52.008;4.748;2023-04-01T15:50:21;6.57;;;4.65;;
15126;SDS011;7664;52.008;4.748;2023-04-01T15:52:58;6.20;;;4.70;;
15126;SDS011;7664;52.008;4.748;2023-04-01T15:55:32;7.35;;;5.22;;
15126;SDS011;7664;52.008;4.748;2023-04-01T15:58:25;6.28;;;4.20;;
15126;SDS011;7664;52.008;4.748;2023-04-01T16:00:57;5.57;;;4.03;;
15126;SDS011;7664;52.008;4.748;2023-04-01T16:03:34;6.50;;;4.50;;
15126;SDS011;7664;52.008;4.748;2023-04-01T16:06:14;5.68;;;4.00;;
15126;SDS011;7664;52.008;4.748;2023-04-01T16:08:52;4.93;;;4.18;;
15126;SDS011;7664;52.008;4.748;2023-04-01T16:11:28;7.93;;;4.43;;
15126;SDS011;7664;52.008;4.748;2023-04-01T16:14:14;7.07;;;4.18;;
15126;SDS011;7664;52.008;4.748;2023-04-01T16:16:53;4.88;;;3.97;;
15126;SDS011;7664;52.008;4.748;2023-04-01T16:19:33;4.90;;;4.20;;
15126;SDS011;7664;52.008;4.748;2023-04-01T16:22:02;5.15;;;4.47;;
15126;SDS011;7664;52.008;4.748;2023-04-01T16:24:34;5.72;;;4.05;;
15126;SDS011;7664;52.008;4.748;2023-04-01T16:27:08;7.68;;;4.40;;
15126;SDS011;7664;52.008;4.748;2023-04-01T16:29:41;6.50;;;4.43;;
15126;SDS011;7664;52.008;4.748;2023-04-01T16:32:18;5.57;;;4.00;;
15126;SDS011;7664;52.008;4.748;2023-04-01T16:34:56;7.50;;;5.13;;
15126;SDS011;7664;52.008;4.748;2023-04-01T16:37:29;6.65;;;4.60;;
15126;SDS011;7664;52.008;4.748;2023-04-01T16:40:02;5.65;;;3.90;;
15126;SDS011;7664;52.008;4.748;2023-04-01T16:42:39;5.63;;;4.30;;
15126;SDS011;7664;52.008;4.748;2023-04-01T16:45:15;5.13;;;3.83;;
15126;SDS011;7664;52.008;4.748;2023-04-01T16:47:46;7.05;;;4.00;;
15126;SDS011;7664;52.008;4.748;2023-04-01T16:50:20;4.35;;;3.58;;
15126;SDS011;7664;52.008;4.748;2023-04-01T16:53:00;6.72;;;4.85;;
15126;SDS011;7664;52.008;4.748;2023-04-01T16:55:34;6.03;;;4.72;;
15126;SDS011;7664;52.008;4.748;2023-04-01T16:58:07;6.28;;;4.40;;
15126;SDS011;7664;52.008;4.748;2023-04-01T17:00:38;5.40;;;4.03;;
15126;SDS011;7664;52.008;4.748;2023-04-01T17:03:12;5.93;;;4.18;;
15126;SDS011;7664;52.008;4.748;2023-04-01T17:05:50;4.43;;;3.22;;
15126;SDS011;7664;52.008;4.748;2023-04-01T17:08:28;5.05;;;4.03;;
15126;SDS011;7664;52.008;4.748;2023-04-01T17:11:02;5.38;;;3.65;;
15126;SDS011;7664;52.008;4.748;2023-04-01T17:13:38;5.43;;;3.88;;
15126;SDS011;7664;52.008;4.748;2023-04-01T17:16:16;4.25;;;3.33;;